KBVO/BVO METAR and TAF weather

Enter ICAO airport designator
Station Type Date Time Source
KBVO METAR 2019/04/18 20:53 UTC NOAA

KBVO 182053Z AUTO 36011G24KT 10SM SCT065 BKN080 19/04 A2984 RMK AO2 PK WND 02026/2029 SLP097 T01940044 58013


Station Type Date Time Source
KBVO Decoded METAR 2019/04/18 20:53 UTC NOAA

BARTLESVILLE MUNICIPAL AIRPORT , OK, United States (KBVO) 36-46N 96-01W 210M
Apr 18, 2019 - 04:53 PM EDT / 2019.04.18 2053 UTC
Wind: from the N (360 degrees) at 13 MPH (11 KT) gusting to 28 MPH (24 KT):0
Visibility: 10 mile(s):0
Sky conditions: mostly cloudy
Temperature: 66.9 F (19.4 C)
Dew Point: 39.9 F (4.4 C)
Relative Humidity: 37%
Pressure (altimeter): 29.84 in. Hg (1010 hPa)
Pressure tendency: 0.04 inches (1.3 hPa) lower than three hours ago
ob: KBVO 182053Z AUTO 36011G24KT 10SM SCT065 BKN080 19/04 A2984 RMK AO2 PK WND 02026/2029 SLP097 T01940044 58013
cycle: 21

Station Type Date Time Source
KBVO TAF 2019/04/18 18:24 UTC NOAA

TAF KBVO 181721Z 1818/1918 35011G21KT P6SM FEW050 SCT250
FM190000 35010KT P6SM BKN070
TEMPO 1900/1904 VRB20G30KT -SHRA
FM191600 36011G17KT P6SM SKC

Example: see airport list